createdAt,value
2022-12-20T00:01:21.649Z,101954.72
2022-12-20T00:03:53.169Z,101954.13
2022-12-20T00:06:20.671Z,101965.84
2022-12-20T00:08:47.931Z,101960.84
2022-12-20T00:11:14.541Z,101961.69
2022-12-20T00:13:41.384Z,101972.56
2022-12-20T00:16:14.129Z,101978.53
2022-12-20T00:18:41.827Z,101981.69
2022-12-20T00:21:11.343Z,101982.59
2022-12-20T00:23:38.382Z,101976.22
2022-12-20T00:26:07.649Z,101983.97
2022-12-20T00:28:35.629Z,101987.41
2022-12-20T00:31:04.408Z,101988.03
2022-12-20T00:33:32.128Z,101982.34
2022-12-20T00:35:58.720Z,101974.25
2022-12-20T00:38:26.399Z,101969.28
2022-12-20T00:41:12.321Z,101970.06
2022-12-20T00:43:40.354Z,101969.72
2022-12-20T00:46:08.819Z,101960.56
2022-12-20T00:48:35.542Z,101969.19
2022-12-20T00:51:04.577Z,101966.19
2022-12-20T00:53:32.105Z,101957.38
2022-12-20T00:55:59.814Z,101950.78
2022-12-20T00:58:27.331Z,101941.00
2022-12-20T01:00:56.965Z,101930.09
2022-12-20T01:03:25.247Z,101930.38
2022-12-20T01:05:57.384Z,101926.19
2022-12-20T01:08:25.785Z,101924.28
2022-12-20T01:11:11.948Z,101925.94
2022-12-20T01:13:40.538Z,101928.75
2022-12-20T01:16:12.313Z,101921.94
2022-12-20T01:18:39.114Z,101930.88
2022-12-20T01:21:08.933Z,101924.84
2022-12-20T01:23:35.871Z,101915.09
2022-12-20T01:26:04.877Z,101913.53
2022-12-20T01:28:32.360Z,101914.16
2022-12-20T01:30:58.954Z,101917.06
2022-12-20T01:33:25.675Z,101919.47
2022-12-20T01:36:00.604Z,101899.53
2022-12-20T01:38:28.422Z,101898.47
2022-12-20T01:40:56.328Z,101890.56
2022-12-20T01:43:24.504Z,101891.19
2022-12-20T01:45:51.183Z,101885.16
2022-12-20T01:48:25.671Z,101892.06
2022-12-20T01:50:53.404Z,101887.22
2022-12-20T01:53:23.189Z,101876.75
2022-12-20T01:55:50.139Z,101876.16
2022-12-20T01:58:19.717Z,101866.72
2022-12-20T02:00:47.312Z,101869.94
2022-12-20T02:03:15.203Z,101857.38
2022-12-20T02:05:45.654Z,101852.94
2022-12-20T02:08:16.922Z,101847.53
2022-12-20T02:11:39.143Z,101840.16
2022-12-20T02:14:18.080Z,101843.09
2022-12-20T02:17:02.007Z,101836.19
2022-12-20T02:20:24.959Z,101831.91
2022-12-20T02:23:15.895Z,101832.81
2022-12-20T02:25:48.334Z,101824.03
2022-12-20T02:28:44.248Z,101828.00
2022-12-20T02:31:14.236Z,101833.91
2022-12-20T02:33:47.772Z,101833.22
2022-12-20T02:36:16.832Z,101831.09
2022-12-20T02:38:43.449Z,101824.72
2022-12-20T02:41:18.319Z,101820.88
2022-12-20T02:43:53.635Z,101824.38
2022-12-20T02:46:22.424Z,101847.53
2022-12-20T02:48:51.035Z,101841.09
2022-12-20T02:51:21.526Z,101842.31
2022-12-20T02:53:48.432Z,101847.72
2022-12-20T02:56:22.087Z,101849.03
2022-12-20T02:58:53.829Z,101846.59
2022-12-20T03:01:44.848Z,101847.09
2022-12-20T03:04:12.740Z,101828.81
2022-12-20T03:06:40.126Z,101820.91
2022-12-20T03:09:06.722Z,101817.47
2022-12-20T03:11:33.318Z,101820.81
2022-12-20T03:13:59.926Z,101805.44
2022-12-20T03:16:26.575Z,101795.97
2022-12-20T03:18:53.333Z,101794.31
2022-12-20T03:21:19.928Z,101790.00
2022-12-20T03:23:46.585Z,101796.72
2022-12-20T03:26:13.255Z,101796.66
2022-12-20T03:28:39.861Z,101788.84
2022-12-20T03:31:06.747Z,101780.63
2022-12-20T03:33:33.403Z,101781.25
2022-12-20T03:35:59.985Z,101782.03
2022-12-20T03:38:26.672Z,101781.97
2022-12-20T03:40:53.243Z,101778.66
2022-12-20T03:43:19.835Z,101777.06
2022-12-20T03:45:46.453Z,101771.22
2022-12-20T03:48:13.050Z,101774.69
2022-12-20T03:50:39.835Z,101777.81
2022-12-20T03:53:06.478Z,101790.88
2022-12-20T03:55:33.134Z,101788.16
2022-12-20T03:57:59.964Z,101789.06
2022-12-20T04:00:26.570Z,101784.03
2022-12-20T04:02:53.362Z,101783.06
2022-12-20T04:05:20.172Z,101773.09
2022-12-20T04:07:46.776Z,101790.31
2022-12-20T04:10:13.759Z,101778.59
2022-12-20T04:12:40.326Z,101777.38
2022-12-20T04:15:07.611Z,101783.06
2022-12-20T04:17:34.207Z,101783.22
2022-12-20T04:20:00.801Z,101777.81
2022-12-20T04:22:27.478Z,101776.94
2022-12-20T04:24:54.138Z,101765.56
2022-12-20T04:27:20.729Z,101765.78
2022-12-20T04:29:47.406Z,101749.25
2022-12-20T04:32:13.988Z,101741.34
2022-12-20T04:34:40.600Z,101739.94
2022-12-20T04:37:07.305Z,101739.16
2022-12-20T04:39:33.909Z,101739.03
2022-12-20T04:42:00.525Z,101740.72
2022-12-20T04:44:27.109Z,101738.94
2022-12-20T04:46:53.741Z,101737.56
2022-12-20T04:49:21.485Z,101731.97
2022-12-20T04:51:48.082Z,101733.03
2022-12-20T04:54:14.681Z,101734.00
2022-12-20T04:56:41.334Z,101731.94
2022-12-20T04:59:07.957Z,101744.34
2022-12-20T05:01:34.619Z,101751.56
2022-12-20T05:04:01.508Z,101758.50
2022-12-20T05:06:28.259Z,101761.59
2022-12-20T05:08:54.833Z,101766.75
2022-12-20T05:11:21.458Z,101765.16
2022-12-20T05:13:48.033Z,101765.91
2022-12-20T05:16:14.801Z,101763.81
2022-12-20T05:18:48.161Z,101765.72
2022-12-20T05:21:15.743Z,101765.00
2022-12-20T05:23:42.881Z,101775.94
2022-12-20T05:26:09.468Z,101775.84
2022-12-20T05:28:36.486Z,101768.31
2022-12-20T05:31:03.596Z,101768.19
2022-12-20T05:33:33.993Z,101777.47
2022-12-20T05:36:01.036Z,101780.31
2022-12-20T05:38:28.192Z,101774.91
2022-12-20T05:40:54.903Z,101777.41
2022-12-20T05:43:21.483Z,101775.78
2022-12-20T05:45:50.737Z,101776.94
2022-12-20T05:48:18.212Z,101771.94
2022-12-20T05:50:45.355Z,101773.41
2022-12-20T05:53:13.792Z,101774.91
2022-12-20T05:55:51.961Z,101769.56
2022-12-20T05:58:19.085Z,101769.28
2022-12-20T06:00:45.829Z,101771.47
2022-12-20T06:03:12.522Z,101762.63
2022-12-20T06:05:39.677Z,101759.09
2022-12-20T06:08:07.237Z,101761.53
2022-12-20T06:10:34.833Z,101751.06
2022-12-20T06:13:02.655Z,101740.19
2022-12-20T06:15:30.660Z,101739.78
2022-12-20T06:17:57.386Z,101747.19
2022-12-20T06:20:24.060Z,101742.06
2022-12-20T06:22:50.667Z,101735.63
2022-12-20T06:25:17.298Z,101729.31
2022-12-20T06:27:43.941Z,101723.97
2022-12-20T06:30:11.517Z,101725.59
2022-12-20T06:32:38.109Z,101725.63
2022-12-20T06:35:05.205Z,101729.38
2022-12-20T06:37:31.985Z,101722.59
2022-12-20T06:39:58.602Z,101717.94
2022-12-20T06:42:25.347Z,101718.09
2022-12-20T06:44:51.939Z,101715.84
2022-12-20T06:47:18.557Z,101718.09
2022-12-20T06:49:46.288Z,101709.75
2022-12-20T06:52:12.939Z,101716.09
2022-12-20T06:54:39.531Z,101727.75
2022-12-20T06:57:06.119Z,101726.94
2022-12-20T06:59:32.696Z,101721.69
2022-12-20T07:01:59.546Z,101709.31
2022-12-20T07:04:26.414Z,101705.19
2022-12-20T07:06:53.010Z,101703.63
2022-12-20T07:09:19.670Z,101704.34
2022-12-20T07:11:46.297Z,101705.19
2022-12-20T07:14:12.896Z,101697.88
2022-12-20T07:16:39.629Z,101692.13
2022-12-20T07:19:06.242Z,101686.56
2022-12-20T07:21:32.870Z,101681.81
2022-12-20T07:23:59.467Z,101680.75
2022-12-20T07:26:26.067Z,101693.00
2022-12-20T07:28:52.837Z,101695.06
2022-12-20T07:31:19.467Z,101687.66
2022-12-20T07:33:46.083Z,101695.34
2022-12-20T07:36:14.105Z,101705.38
2022-12-20T07:38:40.703Z,101713.06
2022-12-20T07:41:12.855Z,101699.44
2022-12-20T07:43:39.542Z,101693.09
2022-12-20T07:46:07.603Z,101699.81
2022-12-20T07:48:34.829Z,101695.50
2022-12-20T07:51:04.593Z,101701.09
2022-12-20T07:53:35.027Z,101702.38
2022-12-20T07:56:03.514Z,101698.47
2022-12-20T07:58:31.447Z,101700.66
2022-12-20T08:00:58.223Z,101691.00
2022-12-20T08:03:30.996Z,101698.13
2022-12-20T08:06:00.903Z,101696.34
2022-12-20T08:08:27.553Z,101691.91
2022-12-20T08:10:54.286Z,101697.25
2022-12-20T08:13:21.045Z,101699.47
2022-12-20T08:15:47.652Z,101674.22
2022-12-20T08:18:14.243Z,101672.44
2022-12-20T08:20:40.880Z,101669.56
2022-12-20T08:23:07.617Z,101671.22
2022-12-20T08:25:41.180Z,101663.53
2022-12-20T08:28:08.368Z,101661.03
2022-12-20T08:30:35.012Z,101651.06
2022-12-20T08:33:01.656Z,101651.22
2022-12-20T08:35:28.521Z,101651.50
2022-12-20T08:37:55.135Z,101659.59
2022-12-20T08:40:21.736Z,101659.09
2022-12-20T08:42:48.433Z,101655.69
2022-12-20T08:45:15.065Z,101656.94
2022-12-20T08:47:41.650Z,101653.31
2022-12-20T08:50:08.689Z,101641.16
2022-12-20T08:52:35.297Z,101643.13
2022-12-20T08:55:02.412Z,101651.22
2022-12-20T08:57:30.899Z,101653.28
2022-12-20T08:59:57.691Z,101649.19
2022-12-20T09:02:24.481Z,101640.56
2022-12-20T09:04:51.115Z,101630.41
2022-12-20T09:07:17.736Z,101632.72
2022-12-20T09:09:44.358Z,101645.09
2022-12-20T09:12:10.963Z,101646.63
2022-12-20T09:14:37.721Z,101639.81
2022-12-20T09:17:04.738Z,101648.00
2022-12-20T09:19:31.383Z,101643.50
2022-12-20T09:21:57.988Z,101649.19
2022-12-20T09:24:24.569Z,101645.81
2022-12-20T09:26:52.280Z,101638.91
2022-12-20T09:29:25.878Z,101638.38
2022-12-20T09:31:55.063Z,101648.03
2022-12-20T09:34:21.684Z,101644.75
2022-12-20T09:36:48.298Z,101648.72
2022-12-20T09:39:14.942Z,101636.75
2022-12-20T09:41:42.748Z,101627.66
2022-12-20T09:44:24.590Z,101613.44
2022-12-20T09:47:08.180Z,101614.03
2022-12-20T09:49:42.086Z,101604.41
2022-12-20T09:52:25.248Z,101609.91
2022-12-20T09:55:16.482Z,101597.66
2022-12-20T09:58:01.305Z,101594.03
2022-12-20T10:00:28.417Z,101590.97
2022-12-20T10:03:06.112Z,101590.72
2022-12-20T10:05:47.003Z,101594.47
2022-12-20T10:08:54.513Z,101595.81
2022-12-20T10:11:46.230Z,101586.78
2022-12-20T10:14:50.675Z,101586.59
2022-12-20T10:17:46.225Z,101574.88
2022-12-20T10:20:15.870Z,101575.59
2022-12-20T10:23:05.921Z,101570.69
2022-12-20T10:25:34.739Z,101569.56
2022-12-20T10:28:09.707Z,101557.59
2022-12-20T10:30:36.528Z,101556.00
2022-12-20T10:33:03.228Z,101556.13
2022-12-20T10:35:34.288Z,101542.19
2022-12-20T10:38:09.839Z,101540.81
2022-12-20T10:47:50.161Z,101517.34
2022-12-20T10:50:23.433Z,101513.47
2022-12-20T10:53:04.718Z,101520.88
2022-12-20T10:55:40.367Z,101511.88
2022-12-20T10:58:29.010Z,101505.66
2022-12-20T11:01:19.412Z,101498.19
2022-12-20T11:04:07.219Z,101499.25
2022-12-20T11:06:39.543Z,101492.25
2022-12-20T11:09:26.555Z,101496.53
2022-12-20T11:12:09.889Z,101476.03
2022-12-20T11:14:39.661Z,101477.06
2022-12-20T11:17:36.791Z,101480.63
2022-12-20T11:20:22.338Z,101469.59
2022-12-20T11:23:06.953Z,101466.56
2022-12-20T11:25:36.989Z,101470.09
2022-12-20T11:28:25.520Z,101460.22
2022-12-20T11:31:42.821Z,101454.72
2022-12-20T11:34:27.214Z,101453.81
2022-12-20T11:37:21.088Z,101460.06
2022-12-20T11:39:59.390Z,101450.06
2022-12-20T11:42:34.933Z,101436.41
2022-12-20T11:45:15.874Z,101451.03
2022-12-20T11:48:10.190Z,101438.38
2022-12-20T11:51:04.702Z,101437.84
2022-12-20T11:53:49.735Z,101429.97
2022-12-20T11:56:21.437Z,101441.56
2022-12-20T11:59:04.564Z,101432.22
2022-12-20T12:02:04.939Z,101425.47
2022-12-20T12:04:39.128Z,101434.72
2022-12-20T12:07:20.620Z,101429.75
2022-12-20T12:10:03.894Z,101435.31
2022-12-20T12:12:54.705Z,101438.63
2022-12-20T12:15:56.642Z,101426.91
2022-12-20T12:18:34.518Z,101424.16
2022-12-20T12:21:39.341Z,101421.94
2022-12-20T12:24:28.505Z,101414.88
2022-12-20T12:26:55.263Z,101414.94
2022-12-20T12:29:22.380Z,101415.25
2022-12-20T12:31:49.232Z,101403.50
2022-12-20T12:34:37.328Z,101397.69
2022-12-20T12:37:37.817Z,101401.25
2022-12-20T12:40:11.086Z,101397.41
2022-12-20T12:43:16.903Z,101393.63
2022-12-20T12:45:48.066Z,101389.22
2022-12-20T12:48:27.491Z,101389.44
2022-12-20T12:50:57.312Z,101385.84
2022-12-20T12:53:32.717Z,101383.72
2022-12-20T12:56:19.340Z,101385.81
2022-12-20T12:59:05.905Z,101380.00
2022-12-20T13:02:13.880Z,101376.63
2022-12-20T13:04:55.846Z,101376.25
2022-12-20T13:07:31.687Z,101377.16
2022-12-20T13:09:59.479Z,101376.09
2022-12-20T13:12:38.319Z,101389.09
2022-12-20T13:15:20.152Z,101380.38
2022-12-20T13:17:53.440Z,101379.69
2022-12-20T13:20:21.456Z,101383.34
2022-12-20T13:23:10.018Z,101376.44
2022-12-20T13:25:42.753Z,101371.50
2022-12-20T13:28:29.552Z,101364.84
2022-12-20T13:31:02.153Z,101366.19
2022-12-20T13:33:47.576Z,101361.06
2022-12-20T13:36:37.522Z,101361.03
2022-12-20T13:39:23.986Z,101356.31
2022-12-20T13:42:30.945Z,101357.94
2022-12-20T13:45:03.537Z,101345.44
2022-12-20T13:47:35.042Z,101349.00
2022-12-20T13:50:22.808Z,101350.31
2022-12-20T13:52:49.517Z,101344.63
2022-12-20T13:55:25.583Z,101340.75
2022-12-20T13:57:54.037Z,101344.00
2022-12-20T14:00:25.960Z,101338.63
2022-12-20T14:02:54.226Z,101328.16
2022-12-20T14:05:27.225Z,101330.72
2022-12-20T14:08:02.770Z,101315.41
2022-12-20T14:10:31.264Z,101315.13
2022-12-20T14:12:58.481Z,101319.00
2022-12-20T14:15:32.193Z,101314.91
2022-12-20T14:18:06.499Z,101311.53
2022-12-20T14:20:37.411Z,101307.63
2022-12-20T14:23:11.005Z,101308.84
2022-12-20T14:25:44.000Z,101313.81
2022-12-20T14:28:24.921Z,101309.81
2022-12-20T14:30:54.074Z,101306.88
2022-12-20T14:33:34.459Z,101311.41
2022-12-20T14:36:19.683Z,101303.91
2022-12-20T14:38:51.234Z,101299.16
2022-12-20T14:41:32.879Z,101299.44
2022-12-20T14:44:22.835Z,101300.16
2022-12-20T14:46:49.897Z,101291.91
2022-12-20T14:49:34.578Z,101289.88
2022-12-20T14:52:13.068Z,101292.25
2022-12-20T14:55:09.539Z,101281.31
2022-12-20T14:57:36.672Z,101278.41
2022-12-20T15:00:30.470Z,101278.22
2022-12-20T15:02:57.299Z,101285.84
2022-12-20T15:05:36.788Z,101286.47
2022-12-20T15:08:32.741Z,101289.41
2022-12-20T15:11:08.272Z,101283.56
2022-12-20T15:13:43.074Z,101284.28
2022-12-20T15:16:24.468Z,101280.28
2022-12-20T15:18:55.302Z,101271.19
2022-12-20T15:21:33.345Z,101276.69
2022-12-20T15:24:02.000Z,101273.72
2022-12-20T15:26:30.472Z,101269.38
2022-12-20T15:28:57.227Z,101274.72
2022-12-20T15:31:32.415Z,101265.47
2022-12-20T15:34:00.630Z,101274.88
2022-12-20T15:36:28.801Z,101275.44
2022-12-20T15:39:13.553Z,101276.97
2022-12-20T15:41:48.606Z,101280.69
2022-12-20T15:44:26.293Z,101285.53
2022-12-20T15:46:53.183Z,101292.56
2022-12-20T15:49:23.182Z,101297.44
2022-12-20T15:51:51.854Z,101296.94
2022-12-20T15:54:31.549Z,101301.34
2022-12-20T15:57:01.319Z,101309.84
2022-12-20T16:02:24.803Z,101293.50
2022-12-20T16:04:53.238Z,101290.09
2022-12-20T16:07:19.965Z,101289.13
2022-12-20T16:09:46.587Z,101290.56
2022-12-20T16:12:19.608Z,101291.41
2022-12-20T16:14:46.208Z,101289.00
2022-12-20T16:17:14.219Z,101287.81
2022-12-20T16:19:42.165Z,101291.78
2022-12-20T16:22:18.541Z,101287.22
2022-12-20T16:24:46.142Z,101283.28
2022-12-20T16:27:13.073Z,101284.16
2022-12-20T16:29:39.802Z,101281.09
2022-12-20T16:32:17.914Z,101293.25
2022-12-20T16:34:44.676Z,101287.09
2022-12-20T16:37:11.363Z,101282.69
2022-12-20T16:39:37.957Z,101278.75
2022-12-20T16:42:11.843Z,101271.63
2022-12-20T16:44:38.449Z,101270.75
2022-12-20T16:47:05.077Z,101275.41
2022-12-20T16:49:31.731Z,101275.91
2022-12-20T16:51:58.327Z,101266.16
2022-12-20T16:54:24.924Z,101269.78
2022-12-20T16:56:52.470Z,101268.91
2022-12-20T16:59:21.340Z,101263.06
2022-12-20T17:01:50.079Z,101264.38
2022-12-20T17:04:18.249Z,101273.47
2022-12-20T17:06:45.565Z,101258.81
2022-12-20T17:11:58.582Z,101259.63
2022-12-20T17:14:25.232Z,101256.00
2022-12-20T17:16:51.908Z,101234.69
2022-12-20T17:19:18.595Z,101237.72
2022-12-20T17:24:33.486Z,101231.72
2022-12-20T17:27:00.100Z,101240.66
2022-12-20T17:29:26.743Z,101245.03
2022-12-20T17:31:53.370Z,101245.63
2022-12-20T17:34:23.147Z,101234.94
2022-12-20T17:36:51.997Z,101235.72
2022-12-20T17:39:19.042Z,101247.78
2022-12-20T17:41:46.623Z,101256.91
2022-12-20T17:44:27.921Z,101257.66
2022-12-20T17:46:56.604Z,101256.16
2022-12-20T17:49:24.305Z,101253.31
2022-12-20T17:51:51.536Z,101247.84
2022-12-20T17:54:20.863Z,101236.13
2022-12-20T17:56:48.106Z,101234.34
2022-12-20T17:59:14.738Z,101243.81
2022-12-20T18:01:42.759Z,101240.00
2022-12-20T18:04:12.304Z,101244.84
2022-12-20T18:06:40.874Z,101240.25
2022-12-20T18:09:21.583Z,101233.31
2022-12-20T18:11:48.325Z,101232.13
2022-12-20T18:14:15.539Z,101229.84
2022-12-20T18:16:42.319Z,101233.25
2022-12-20T18:19:15.798Z,101217.41
2022-12-20T18:21:42.398Z,101224.31
2022-12-20T18:24:14.569Z,101213.03
2022-12-20T18:26:41.971Z,101206.78
2022-12-20T18:29:10.839Z,101204.97
2022-12-20T18:31:37.912Z,101192.78
2022-12-20T18:34:04.875Z,101192.88
2022-12-20T18:36:36.575Z,101195.13
2022-12-20T18:39:06.150Z,101190.28
2022-12-20T18:41:33.329Z,101192.81
2022-12-20T18:44:05.257Z,101187.38
2022-12-20T18:46:32.757Z,101186.06
2022-12-20T18:49:00.620Z,101185.00
2022-12-20T18:51:32.736Z,101179.19
2022-12-20T18:53:59.962Z,101177.81
2022-12-20T18:56:30.372Z,101171.38
2022-12-20T18:59:01.705Z,101175.88
2022-12-20T19:01:34.348Z,101168.00
2022-12-20T19:04:03.055Z,101176.72
2022-12-20T19:06:30.865Z,101174.75
2022-12-20T19:08:59.578Z,101179.28
2022-12-20T19:11:26.273Z,101180.91
2022-12-20T19:13:52.859Z,101179.59
2022-12-20T19:16:23.060Z,101173.03
2022-12-20T19:18:50.056Z,101166.59
2022-12-20T19:21:24.653Z,101160.75
2022-12-20T19:23:54.701Z,101161.69
2022-12-20T19:26:23.944Z,101159.41
2022-12-20T19:28:50.634Z,101155.06
2022-12-20T19:31:21.856Z,101155.41
2022-12-20T19:33:50.363Z,101154.59
2022-12-20T19:36:28.505Z,101152.03
2022-12-20T19:38:57.658Z,101149.53
2022-12-20T19:41:27.328Z,101145.56
2022-12-20T19:43:54.784Z,101142.19
2022-12-20T19:46:26.537Z,101148.31
2022-12-20T19:48:56.317Z,101146.72
2022-12-20T19:51:23.550Z,101152.88
2022-12-20T19:53:51.202Z,101156.47
2022-12-20T19:56:20.525Z,101162.44
2022-12-20T19:58:47.408Z,101169.06
2022-12-20T20:01:15.716Z,101168.44
2022-12-20T20:03:42.494Z,101159.09
2022-12-20T20:06:09.759Z,101165.44
2022-12-20T20:08:36.735Z,101164.38
2022-12-20T20:11:09.367Z,101166.38
2022-12-20T20:13:36.613Z,101168.16
2022-12-20T20:16:03.471Z,101170.28
2022-12-20T20:18:33.349Z,101170.00
2022-12-20T20:20:59.967Z,101154.75
2022-12-20T20:23:27.491Z,101161.31
2022-12-20T20:25:56.132Z,101162.47
2022-12-20T20:28:31.678Z,101161.59
2022-12-20T20:30:59.875Z,101161.69
2022-12-20T20:33:26.632Z,101167.13
2022-12-20T20:35:58.500Z,101168.34
2022-12-20T20:38:25.789Z,101168.34
2022-12-20T20:40:52.445Z,101164.13
2022-12-20T20:43:20.004Z,101157.03
2022-12-20T20:45:46.696Z,101144.81
2022-12-20T20:48:13.740Z,101137.38
2022-12-20T20:50:40.522Z,101134.50
2022-12-20T20:53:07.302Z,101139.06
2022-12-20T20:55:34.667Z,101142.16
2022-12-20T20:58:02.094Z,101147.34
2022-12-20T21:00:29.859Z,101142.34
2022-12-20T21:02:56.638Z,101141.19
2022-12-20T21:08:10.224Z,101128.66
2022-12-20T21:10:37.280Z,101131.84
2022-12-20T21:13:04.981Z,101134.84
2022-12-20T21:15:31.579Z,101130.34
2022-12-20T21:17:58.162Z,101133.88
2022-12-20T21:20:26.503Z,101126.44
2022-12-20T21:22:53.537Z,101120.31
2022-12-20T21:25:20.183Z,101113.63
2022-12-20T21:27:46.775Z,101119.09
2022-12-20T21:30:13.437Z,101117.84
2022-12-20T21:32:40.036Z,101116.00
2022-12-20T21:35:06.900Z,101117.25
2022-12-20T21:37:33.515Z,101107.50
2022-12-20T21:40:00.350Z,101094.38
2022-12-20T21:42:27.047Z,101095.78
2022-12-20T21:44:53.665Z,101107.06
2022-12-20T21:47:20.268Z,101122.22
2022-12-20T21:49:46.898Z,101107.59
2022-12-20T21:52:13.632Z,101091.69
2022-12-20T21:54:40.633Z,101090.03
2022-12-20T21:57:07.215Z,101083.28
2022-12-20T21:59:33.813Z,101082.28
2022-12-20T22:02:00.760Z,101074.41
2022-12-20T22:04:27.652Z,101061.53
2022-12-20T22:06:54.251Z,101065.81
2022-12-20T22:09:20.855Z,101066.31
2022-12-20T22:11:47.895Z,101069.81
2022-12-20T22:14:15.293Z,101071.16
2022-12-20T22:16:42.951Z,101060.47
2022-12-20T22:19:13.247Z,101056.78
2022-12-20T22:21:39.817Z,101048.78
2022-12-20T22:24:06.667Z,101043.53
2022-12-20T22:26:33.436Z,101034.84
2022-12-20T22:29:05.735Z,101033.22
2022-12-20T22:31:33.568Z,101030.72
2022-12-20T22:34:00.948Z,101023.84
2022-12-20T22:36:28.090Z,101018.44
2022-12-20T22:38:56.318Z,101022.72
2022-12-20T22:41:25.977Z,101022.50
2022-12-20T22:43:52.715Z,101013.28
2022-12-20T22:46:19.919Z,101013.28
2022-12-20T22:48:46.868Z,101011.78
2022-12-20T22:51:21.507Z,101003.75
2022-12-20T22:53:49.191Z,100995.78
2022-12-20T22:56:17.625Z,100985.09
2022-12-20T22:58:44.233Z,100993.47
2022-12-20T23:01:14.016Z,100983.69
2022-12-20T23:03:41.274Z,100990.25
2022-12-20T23:06:12.104Z,100987.59
2022-12-20T23:08:39.101Z,100989.97
2022-12-20T23:11:15.349Z,100993.91
2022-12-20T23:13:42.937Z,100984.75
2022-12-20T23:16:11.982Z,100982.03
2022-12-20T23:18:38.640Z,100981.06
2022-12-20T23:21:05.309Z,100977.84
2022-12-20T23:23:32.310Z,100978.72
2022-12-20T23:26:09.000Z,100975.88
2022-12-20T23:28:35.598Z,100968.59
2022-12-20T23:31:04.482Z,100968.97
2022-12-20T23:33:31.078Z,100963.38
2022-12-20T23:35:59.395Z,100966.34
2022-12-20T23:38:26.017Z,100955.72
2022-12-20T23:40:53.204Z,100953.88
2022-12-20T23:43:19.795Z,100943.00
2022-12-20T23:45:46.451Z,100944.69
2022-12-20T23:48:14.322Z,100937.31
2022-12-20T23:50:40.936Z,100940.03
2022-12-20T23:53:07.545Z,100934.94
2022-12-20T23:55:34.144Z,100928.88
2022-12-20T23:58:00.791Z,100921.84
